createdAt,value
2023-03-05T00:01:15.760Z,2.21
2023-03-05T00:03:43.161Z,2.21
2023-03-05T00:06:10.567Z,2.13
2023-03-05T00:08:38.368Z,2.09
2023-03-05T00:11:08.170Z,2.07
2023-03-05T00:13:35.977Z,1.95
2023-03-05T00:16:12.116Z,1.91
2023-03-05T00:18:40.184Z,1.95
2023-03-05T00:21:24.629Z,1.92
2023-03-05T00:23:53.225Z,1.92
2023-03-05T00:26:22.867Z,1.90
2023-03-05T00:28:51.864Z,1.84
2023-03-05T00:31:30.437Z,1.82
2023-03-05T00:34:04.288Z,1.71
2023-03-05T00:36:32.014Z,1.69
2023-03-05T00:38:59.920Z,1.66
2023-03-05T00:41:27.658Z,1.59
2023-03-05T00:43:55.343Z,1.59
2023-03-05T00:46:23.448Z,1.58
2023-03-05T00:48:50.699Z,1.51
2023-03-05T00:51:19.189Z,1.49
2023-03-05T00:53:46.694Z,1.44
2023-03-05T00:56:14.000Z,1.49
2023-03-05T00:58:41.217Z,1.46
2023-03-05T01:01:08.630Z,1.36
2023-03-05T01:03:36.479Z,1.36
2023-03-05T01:06:09.853Z,1.32
2023-03-05T01:08:37.898Z,1.29
2023-03-05T01:11:06.601Z,1.32
2023-03-05T01:13:34.211Z,1.34
2023-03-05T01:16:02.154Z,1.37
2023-03-05T01:18:29.554Z,1.39
2023-03-05T01:20:56.852Z,1.29
2023-03-05T01:23:24.276Z,1.29
2023-03-05T01:26:00.875Z,1.30
2023-03-05T01:28:28.547Z,1.35
2023-03-05T01:30:56.126Z,1.30
2023-03-05T01:33:23.411Z,1.56
2023-03-05T01:35:51.858Z,1.58
2023-03-05T01:38:19.157Z,1.49
2023-03-05T01:40:46.448Z,1.40
2023-03-05T01:43:13.664Z,1.50
2023-03-05T01:46:13.250Z,1.63
2023-03-05T01:48:44.418Z,1.40
2023-03-05T01:51:12.369Z,1.16
2023-03-05T01:53:40.251Z,1.01
2023-03-05T01:56:07.953Z,1.00
2023-03-05T01:58:35.419Z,1.02
2023-03-05T02:01:02.840Z,1.02
2023-03-05T02:03:30.398Z,1.11
2023-03-05T02:05:57.741Z,1.13
2023-03-05T02:08:24.997Z,1.16
2023-03-05T02:10:58.190Z,1.23
2023-03-05T02:13:31.059Z,1.26
2023-03-05T02:16:00.432Z,1.22
2023-03-05T02:18:28.643Z,1.18
2023-03-05T02:20:56.246Z,1.21
2023-03-05T02:23:27.798Z,1.12
2023-03-05T02:25:55.465Z,1.09
2023-03-05T02:28:25.750Z,1.14
2023-03-05T02:30:53.059Z,1.39
2023-03-05T02:33:20.950Z,1.35
2023-03-05T02:35:48.990Z,1.28
2023-03-05T02:38:18.821Z,1.22
2023-03-05T02:40:46.069Z,1.18
2023-03-05T02:43:14.883Z,1.13
2023-03-05T02:45:42.223Z,1.19
2023-03-05T02:48:09.434Z,1.18
2023-03-05T02:50:37.150Z,1.21
2023-03-05T02:53:04.520Z,1.33
2023-03-05T02:55:31.950Z,1.26
2023-03-05T02:58:00.446Z,1.13
2023-03-05T03:00:28.462Z,1.09
2023-03-05T03:02:56.203Z,0.96
2023-03-05T03:05:23.532Z,0.94
2023-03-05T03:07:50.920Z,0.93
2023-03-05T03:10:18.549Z,0.93
2023-03-05T03:12:45.956Z,0.89
2023-03-05T03:15:15.516Z,0.81
2023-03-05T03:17:43.250Z,0.76
2023-03-05T03:20:14.184Z,0.84
2023-03-05T03:22:42.483Z,0.91
2023-03-05T03:25:14.227Z,0.95
2023-03-05T03:27:41.479Z,0.98
2023-03-05T03:30:09.413Z,0.89
2023-03-05T03:32:36.624Z,0.90
2023-03-05T03:35:04.217Z,0.82
2023-03-05T03:37:32.625Z,0.78
2023-03-05T03:39:59.999Z,0.75
2023-03-05T03:42:27.387Z,0.74
2023-03-05T03:44:54.663Z,0.69
2023-03-05T03:47:21.903Z,0.72
2023-03-05T03:49:49.170Z,0.71
2023-03-05T03:52:17.464Z,0.59
2023-03-05T03:54:44.677Z,0.53
2023-03-05T03:57:11.867Z,0.54
2023-03-05T03:59:39.116Z,0.54
2023-03-05T04:02:06.487Z,0.48
2023-03-05T04:04:33.753Z,0.45
2023-03-05T04:07:00.979Z,0.46
2023-03-05T04:09:28.315Z,0.46
2023-03-05T04:11:55.522Z,0.44
2023-03-05T04:14:22.767Z,0.43
2023-03-05T04:16:50.003Z,0.42
2023-03-05T04:19:17.280Z,0.36
2023-03-05T04:21:44.558Z,0.30
2023-03-05T04:24:11.827Z,0.43
2023-03-05T04:26:39.070Z,0.55
2023-03-05T04:29:06.331Z,0.55
2023-03-05T04:31:33.698Z,0.63
2023-03-05T04:34:00.957Z,0.51
2023-03-05T04:36:28.177Z,0.56
2023-03-05T04:38:55.428Z,0.59
2023-03-05T04:41:22.740Z,0.57
2023-03-05T04:43:49.937Z,0.61
2023-03-05T04:46:17.275Z,0.64
2023-03-05T04:48:44.550Z,0.64
2023-03-05T04:51:11.943Z,0.65
2023-03-05T04:53:39.166Z,0.65
2023-03-05T04:56:06.948Z,0.56
2023-03-05T04:58:34.181Z,0.55
2023-03-05T05:01:02.662Z,0.54
2023-03-05T05:03:30.137Z,0.52
2023-03-05T05:05:59.829Z,0.48
2023-03-05T05:08:27.884Z,0.45
2023-03-05T05:11:04.902Z,0.47
2023-03-05T05:13:32.834Z,0.50
2023-03-05T05:16:00.427Z,0.55
2023-03-05T05:18:27.728Z,0.40
2023-03-05T05:20:55.006Z,0.38
2023-03-05T05:23:22.416Z,0.33
2023-03-05T05:26:00.134Z,0.27
2023-03-05T05:28:27.973Z,0.27
2023-03-05T05:30:55.546Z,0.27
2023-03-05T05:33:23.851Z,0.19
2023-03-05T05:35:51.457Z,0.14
2023-03-05T05:38:19.160Z,0.08
2023-03-05T05:40:46.370Z,0.08
2023-03-05T05:43:14.340Z,0.04
2023-03-05T05:45:41.698Z,0.06
2023-03-05T05:48:09.280Z,0.05
2023-03-05T05:50:38.678Z,-0.07
2023-03-05T05:53:05.889Z,-0.12
2023-03-05T05:55:33.129Z,-0.14
2023-03-05T05:58:00.424Z,-0.19
2023-03-05T06:00:27.622Z,-0.12
2023-03-05T06:02:54.958Z,-0.09
2023-03-05T06:05:22.278Z,-0.06
2023-03-05T06:07:49.508Z,-0.05
2023-03-05T06:10:17.035Z,0.08
2023-03-05T06:12:44.245Z,0.18
2023-03-05T06:15:11.596Z,0.26
2023-03-05T06:17:38.958Z,0.26
2023-03-05T06:20:07.340Z,0.31
2023-03-05T06:22:39.351Z,0.37
2023-03-05T06:25:08.310Z,0.48
2023-03-05T06:27:36.623Z,0.56
2023-03-05T06:30:05.411Z,0.62
2023-03-05T06:32:32.689Z,0.68
2023-03-05T06:34:59.953Z,0.81
2023-03-05T06:37:27.234Z,0.96
2023-03-05T06:39:54.519Z,1.11
2023-03-05T06:42:21.800Z,1.18
2023-03-05T06:44:49.045Z,1.20
2023-03-05T06:47:16.340Z,1.29
2023-03-05T06:49:43.605Z,1.36
2023-03-05T06:52:12.855Z,1.54
2023-03-05T06:54:40.417Z,1.77
2023-03-05T06:57:07.720Z,1.93
2023-03-05T06:59:34.938Z,2.13
2023-03-05T07:02:02.211Z,2.15
2023-03-05T07:04:29.464Z,2.34
2023-03-05T07:06:57.906Z,2.53
2023-03-05T07:09:25.114Z,2.66
2023-03-05T07:11:52.355Z,2.79
2023-03-05T07:14:19.612Z,2.97
2023-03-05T07:16:46.840Z,3.17
2023-03-05T07:19:14.449Z,3.22
2023-03-05T07:21:41.703Z,3.47
2023-03-05T07:24:09.101Z,3.57
2023-03-05T07:26:36.615Z,3.59
2023-03-05T07:29:04.339Z,3.77
2023-03-05T07:31:32.135Z,3.95
2023-03-05T07:34:01.797Z,4.11
2023-03-05T07:36:30.436Z,4.22
2023-03-05T07:38:57.690Z,4.38
2023-03-05T07:41:24.936Z,4.46
2023-03-05T07:43:54.490Z,4.66
2023-03-05T07:46:26.228Z,4.81
2023-03-05T07:48:54.652Z,4.97
2023-03-05T07:51:23.098Z,5.13
2023-03-05T07:53:52.460Z,5.24
2023-03-05T07:56:24.619Z,5.35
2023-03-05T07:58:52.863Z,5.31
2023-03-05T08:01:20.194Z,5.39
2023-03-05T08:03:47.418Z,5.42
2023-03-05T08:06:14.842Z,5.62
2023-03-05T08:08:42.158Z,5.79
2023-03-05T08:11:12.290Z,5.88
2023-03-05T08:13:39.908Z,6.04
2023-03-05T08:16:15.480Z,6.11
2023-03-05T08:18:43.477Z,6.24
2023-03-05T08:21:29.395Z,6.27
2023-03-05T08:23:57.598Z,6.51
2023-03-05T08:26:27.439Z,6.71
2023-03-05T08:28:54.882Z,6.96
2023-03-05T08:31:23.955Z,7.14
2023-03-05T08:33:53.213Z,7.21
2023-03-05T08:36:20.570Z,7.39
2023-03-05T08:38:48.617Z,7.56
2023-03-05T08:41:17.050Z,7.71
2023-03-05T08:43:44.561Z,7.90
2023-03-05T08:46:17.059Z,8.08
2023-03-05T08:48:44.569Z,8.21
2023-03-05T08:51:14.669Z,8.31
2023-03-05T08:53:43.670Z,8.27
2023-03-05T08:56:11.137Z,8.45
2023-03-05T08:58:39.067Z,8.64
2023-03-05T09:01:07.009Z,8.93
2023-03-05T09:03:34.321Z,9.09
2023-03-05T09:06:08.039Z,9.21
2023-03-05T09:08:35.732Z,9.45
2023-03-05T09:11:04.444Z,9.64
2023-03-05T09:13:32.016Z,9.72
2023-03-05T09:16:01.561Z,9.87
2023-03-05T09:18:29.279Z,9.69
2023-03-05T09:20:56.865Z,9.82
2023-03-05T09:23:24.435Z,9.95
2023-03-05T09:25:51.759Z,10.09
2023-03-05T09:28:19.031Z,10.18
2023-03-05T09:30:46.254Z,10.11
2023-03-05T09:33:13.676Z,10.32
2023-03-05T09:35:40.977Z,10.61
2023-03-05T09:38:08.239Z,10.57
2023-03-05T09:40:54.343Z,10.64
2023-03-05T09:43:36.468Z,10.65
2023-03-05T09:46:10.594Z,10.76
2023-03-05T09:48:49.913Z,10.63
2023-03-05T09:51:22.863Z,10.90
2023-03-05T09:54:03.039Z,11.06
2023-03-05T09:56:41.564Z,11.14
2023-03-05T09:59:30.474Z,11.42
2023-03-05T10:02:05.601Z,11.57
2023-03-05T10:04:46.669Z,11.51
2023-03-05T10:07:31.980Z,11.67
2023-03-05T10:10:06.445Z,11.89
2023-03-05T10:12:48.457Z,11.75
2023-03-05T10:15:50.345Z,11.95
2023-03-05T10:18:28.891Z,12.12
2023-03-05T10:20:59.079Z,12.27
2023-03-05T10:23:29.658Z,12.10
2023-03-05T10:26:03.992Z,12.36
2023-03-05T10:28:47.949Z,12.39
2023-03-05T10:31:35.392Z,12.45
2023-03-05T10:34:31.236Z,12.75
2023-03-05T10:37:12.526Z,12.81
2023-03-05T10:39:58.100Z,12.98
2023-03-05T10:42:37.651Z,13.03
2023-03-05T10:45:29.890Z,13.03
2023-03-05T10:48:03.414Z,13.20
2023-03-05T10:50:42.921Z,13.41
2023-03-05T10:53:10.076Z,13.56
2023-03-05T10:55:37.257Z,13.61
2023-03-05T10:58:13.346Z,13.67
2023-03-05T11:00:41.113Z,13.72
2023-03-05T11:03:10.426Z,13.58
2023-03-05T11:05:40.359Z,13.44
2023-03-05T11:08:19.621Z,13.42
2023-03-05T11:10:46.838Z,13.79
2023-03-05T11:13:26.115Z,14.12
2023-03-05T11:16:01.578Z,14.10
2023-03-05T11:18:34.359Z,14.02
2023-03-05T11:21:19.563Z,13.81
2023-03-05T11:24:14.910Z,14.27
2023-03-05T11:26:53.645Z,14.33
2023-03-05T11:29:24.407Z,14.63
2023-03-05T11:31:52.323Z,14.69
2023-03-05T11:34:19.456Z,14.73
2023-03-05T11:36:53.179Z,14.85
2023-03-05T11:39:22.984Z,14.70
2023-03-05T11:41:58.385Z,14.83
2023-03-05T11:44:30.176Z,15.05
2023-03-05T11:47:05.009Z,15.24
2023-03-05T11:49:35.129Z,15.39
2023-03-05T11:52:11.264Z,15.20
2023-03-05T11:54:56.929Z,15.65
2023-03-05T11:57:25.854Z,15.84
2023-03-05T11:59:56.661Z,15.65
2023-03-05T12:02:26.670Z,15.30
2023-03-05T12:04:53.989Z,15.80
2023-03-05T12:07:33.010Z,15.90
2023-03-05T12:10:01.914Z,15.85
2023-03-05T12:12:51.147Z,15.93
2023-03-05T12:15:18.267Z,16.11
2023-03-05T12:17:48.229Z,15.99
2023-03-05T12:20:50.805Z,15.94
2023-03-05T12:23:21.377Z,16.11
2023-03-05T12:25:57.726Z,16.50
2023-03-05T12:28:30.855Z,16.65
2023-03-05T12:31:01.340Z,16.64
2023-03-05T12:33:42.217Z,16.57
2023-03-05T12:36:21.491Z,16.59
2023-03-05T12:38:51.799Z,16.70
2023-03-05T12:41:27.883Z,16.78
2023-03-05T12:44:07.426Z,16.55
2023-03-05T12:46:36.774Z,16.37
2023-03-05T12:49:19.011Z,16.44
2023-03-05T12:51:47.903Z,16.77
2023-03-05T12:54:30.000Z,16.93
2023-03-05T12:57:00.472Z,17.09
2023-03-05T12:59:58.521Z,17.40
2023-03-05T13:02:34.494Z,17.37
2023-03-05T13:05:07.512Z,17.27
2023-03-05T13:07:35.148Z,17.02
2023-03-05T13:10:02.751Z,17.06
2023-03-05T13:12:31.099Z,16.87
2023-03-05T13:15:06.174Z,17.01
2023-03-05T13:17:53.209Z,17.02
2023-03-05T13:20:42.621Z,16.86
2023-03-05T13:23:20.700Z,17.02
2023-03-05T13:26:18.680Z,17.31
2023-03-05T13:29:04.638Z,17.54
2023-03-05T13:31:32.098Z,17.27
2023-03-05T13:34:37.434Z,17.35
2023-03-05T13:37:18.473Z,17.40
2023-03-05T13:39:52.286Z,17.40
2023-03-05T13:42:24.018Z,17.58
2023-03-05T13:45:05.720Z,17.49
2023-03-05T13:47:35.726Z,17.43
2023-03-05T13:50:08.791Z,17.62
2023-03-05T13:52:38.431Z,17.33
2023-03-05T13:55:14.738Z,17.61
2023-03-05T13:57:45.787Z,17.58
2023-03-05T14:00:35.190Z,17.58
2023-03-05T14:03:34.906Z,17.64
2023-03-05T14:06:09.339Z,17.62
2023-03-05T14:08:36.699Z,17.49
2023-03-05T14:11:17.530Z,17.84
2023-03-05T14:13:46.073Z,17.58
2023-03-05T14:16:23.226Z,17.64
2023-03-05T14:18:58.690Z,17.76
2023-03-05T14:21:25.858Z,17.63
2023-03-05T14:23:55.006Z,17.63
2023-03-05T14:26:34.949Z,17.80
2023-03-05T14:29:13.503Z,17.85
2023-03-05T14:31:53.343Z,18.02
2023-03-05T14:34:28.878Z,18.10
2023-03-05T14:37:00.203Z,18.10
2023-03-05T14:39:32.662Z,18.24
2023-03-05T14:42:33.600Z,18.51
2023-03-05T14:45:13.968Z,18.45
2023-03-05T14:47:41.226Z,19.09
2023-03-05T14:50:14.995Z,20.09
2023-03-05T14:52:42.492Z,20.74
2023-03-05T14:55:24.600Z,21.50
2023-03-05T14:57:57.982Z,21.44
2023-03-05T15:00:27.168Z,21.95
2023-03-05T15:02:54.671Z,22.77
2023-03-05T15:05:22.058Z,22.73
2023-03-05T15:07:50.649Z,22.31
2023-03-05T15:10:19.822Z,22.80
2023-03-05T15:12:47.314Z,22.77
2023-03-05T15:15:15.462Z,23.53
2023-03-05T15:17:47.322Z,23.34
2023-03-05T15:20:20.126Z,23.48
2023-03-05T15:22:47.349Z,22.88
2023-03-05T15:25:15.195Z,23.09
2023-03-05T15:27:42.429Z,23.91
2023-03-05T15:30:34.036Z,23.81
2023-03-05T15:33:04.184Z,23.88
2023-03-05T15:35:31.534Z,23.52
2023-03-05T15:37:59.018Z,22.95
2023-03-05T15:40:27.856Z,21.64
2023-03-05T15:42:56.540Z,20.44
2023-03-05T15:45:24.489Z,19.96
2023-03-05T15:47:53.119Z,19.16
2023-03-05T15:50:21.786Z,18.02
2023-03-05T15:52:49.281Z,17.84
2023-03-05T15:55:18.264Z,17.22
2023-03-05T15:57:48.502Z,17.15
2023-03-05T16:00:18.623Z,16.90
2023-03-05T16:02:45.789Z,16.59
2023-03-05T16:05:12.969Z,16.51
2023-03-05T16:07:42.558Z,16.17
2023-03-05T16:10:21.745Z,16.16
2023-03-05T16:12:52.797Z,16.03
2023-03-05T16:15:21.790Z,15.83
2023-03-05T16:17:53.268Z,15.69
2023-03-05T16:20:21.588Z,15.31
2023-03-05T16:22:49.750Z,15.02
2023-03-05T16:25:17.464Z,15.06
2023-03-05T16:27:44.840Z,14.92
2023-03-05T16:30:15.039Z,14.59
2023-03-05T16:32:43.073Z,14.41
2023-03-05T16:35:12.297Z,14.14
2023-03-05T16:37:40.780Z,13.99
2023-03-05T16:40:10.920Z,13.83
2023-03-05T16:42:38.284Z,13.68
2023-03-05T16:45:06.829Z,13.55
2023-03-05T16:47:34.134Z,13.42
2023-03-05T16:50:01.332Z,13.27
2023-03-05T16:52:29.513Z,13.09
2023-03-05T16:54:56.739Z,12.92
2023-03-05T16:57:25.466Z,12.77
2023-03-05T16:59:54.138Z,12.56
2023-03-05T17:02:21.581Z,12.36
2023-03-05T17:04:50.327Z,12.19
2023-03-05T17:07:18.277Z,12.01
2023-03-05T17:09:47.747Z,11.82
2023-03-05T17:12:15.002Z,11.59
2023-03-05T17:14:42.233Z,11.38
2023-03-05T17:17:09.564Z,11.14
2023-03-05T17:19:36.851Z,11.02
2023-03-05T17:22:04.374Z,10.84
2023-03-05T17:24:32.941Z,10.71
2023-03-05T17:27:00.489Z,10.55
2023-03-05T17:29:27.854Z,10.44
2023-03-05T17:31:55.080Z,10.32
2023-03-05T17:34:33.240Z,10.23
2023-03-05T17:37:01.049Z,10.14
2023-03-05T17:39:28.212Z,10.02
2023-03-05T17:41:55.399Z,9.85
2023-03-05T17:44:22.589Z,9.78
2023-03-05T17:46:49.804Z,9.70
2023-03-05T17:49:16.976Z,9.63
2023-03-05T17:51:44.142Z,9.44
2023-03-05T17:54:11.313Z,9.35
2023-03-05T17:56:38.512Z,9.25
2023-03-05T17:59:05.779Z,9.19
2023-03-05T18:01:34.652Z,9.13
2023-03-05T18:04:02.219Z,9.08
2023-03-05T18:06:29.783Z,9.05
2023-03-05T18:08:57.012Z,9.00
2023-03-05T18:11:24.455Z,8.94
2023-03-05T18:13:51.632Z,8.89
2023-03-05T18:16:18.973Z,8.82
2023-03-05T18:18:46.499Z,8.77
2023-03-05T18:21:19.190Z,8.68
2023-03-05T18:23:46.576Z,8.67
2023-03-05T18:26:14.298Z,8.59
2023-03-05T18:28:41.496Z,8.53
2023-03-05T18:31:08.837Z,8.44
2023-03-05T18:33:36.165Z,8.38
2023-03-05T18:36:03.427Z,8.38
2023-03-05T18:38:31.537Z,8.28
2023-03-05T18:41:02.572Z,8.12
2023-03-05T18:43:30.655Z,8.10
2023-03-05T18:45:58.786Z,8.17
2023-03-05T18:48:26.293Z,8.13
2023-03-05T18:50:54.375Z,7.90
2023-03-05T18:53:22.402Z,7.99
2023-03-05T18:55:51.359Z,7.93
2023-03-05T18:58:19.455Z,7.83
2023-03-05T19:00:47.685Z,7.61
2023-03-05T19:03:16.397Z,7.53
2023-03-05T19:05:43.669Z,7.60
2023-03-05T19:08:11.499Z,7.55
2023-03-05T19:10:39.083Z,7.49
2023-03-05T19:13:44.090Z,7.36
2023-03-05T19:16:20.692Z,7.21
2023-03-05T19:19:20.189Z,7.15
2023-03-05T19:21:49.467Z,7.15
2023-03-05T19:24:17.497Z,7.11
2023-03-05T19:26:46.363Z,7.19
2023-03-05T19:29:14.499Z,7.13
2023-03-05T19:31:42.011Z,7.02
2023-03-05T19:34:09.283Z,6.96
2023-03-05T19:36:36.590Z,6.91
2023-03-05T19:39:06.273Z,6.78
2023-03-05T19:41:34.165Z,6.79
2023-03-05T19:44:01.665Z,6.68
2023-03-05T19:46:28.917Z,6.67
2023-03-05T19:48:56.293Z,6.59
2023-03-05T19:51:25.217Z,6.49
2023-03-05T19:53:52.973Z,6.37
2023-03-05T19:56:20.638Z,6.32
2023-03-05T19:58:48.992Z,6.25
2023-03-05T20:01:24.224Z,6.19
2023-03-05T20:03:55.745Z,6.13
2023-03-05T20:06:24.238Z,5.98
2023-03-05T20:08:51.631Z,5.88
2023-03-05T20:11:19.840Z,5.90
2023-03-05T20:13:47.342Z,5.88
2023-03-05T20:16:23.630Z,5.95
2023-03-05T20:18:52.971Z,6.11
2023-03-05T20:21:26.112Z,6.02
2023-03-05T20:23:55.449Z,5.95
2023-03-05T20:26:25.796Z,5.93
2023-03-05T20:28:54.141Z,5.86
2023-03-05T20:31:24.458Z,5.72
2023-03-05T20:33:51.754Z,5.70
2023-03-05T20:36:19.064Z,5.66
2023-03-05T20:38:46.480Z,5.60
2023-03-05T20:41:17.065Z,5.43
2023-03-05T20:43:46.823Z,5.31
2023-03-05T20:46:20.015Z,5.22
2023-03-05T20:48:49.509Z,5.17
2023-03-05T20:51:22.485Z,5.12
2023-03-05T20:53:51.709Z,5.22
2023-03-05T20:56:18.955Z,5.26
2023-03-05T20:58:46.216Z,5.15
2023-03-05T21:01:13.563Z,5.05
2023-03-05T21:03:41.778Z,4.91
2023-03-05T21:06:09.302Z,4.88
2023-03-05T21:08:36.560Z,4.78
2023-03-05T21:11:08.802Z,4.81
2023-03-05T21:13:36.621Z,4.91
2023-03-05T21:16:13.700Z,4.97
2023-03-05T21:18:40.902Z,4.94
2023-03-05T21:21:08.169Z,4.97
2023-03-05T21:23:36.722Z,5.02
2023-03-05T21:26:04.200Z,5.15
2023-03-05T21:28:31.880Z,5.22
2023-03-05T21:31:07.222Z,5.31
2023-03-05T21:33:34.458Z,5.31
2023-03-05T21:36:01.755Z,5.31
2023-03-05T21:38:30.794Z,5.35
2023-03-05T21:40:58.632Z,5.32
2023-03-05T21:43:26.875Z,5.27
2023-03-05T21:45:57.090Z,5.18
2023-03-05T21:48:25.173Z,5.13
2023-03-05T21:50:52.980Z,5.21
2023-03-05T21:53:21.449Z,5.26
2023-03-05T21:56:25.877Z,5.43
2023-03-05T21:58:53.950Z,5.44
2023-03-05T22:01:21.815Z,5.45
2023-03-05T22:03:49.776Z,5.47
2023-03-05T22:06:18.817Z,5.48
2023-03-05T22:08:47.129Z,5.50
2023-03-05T22:11:17.385Z,5.51
2023-03-05T22:13:44.594Z,5.52
2023-03-05T22:16:14.359Z,5.52
2023-03-05T22:18:41.754Z,5.52
2023-03-05T22:21:18.488Z,5.46
2023-03-05T22:23:46.833Z,5.44
2023-03-05T22:26:14.071Z,5.48
2023-03-05T22:28:42.613Z,5.48
2023-03-05T22:31:10.468Z,5.40
2023-03-05T22:33:38.204Z,5.31
2023-03-05T22:36:10.973Z,5.30
2023-03-05T22:38:38.199Z,5.33
2023-03-05T22:41:16.694Z,5.28
2023-03-05T22:43:43.860Z,5.26
2023-03-05T22:46:28.969Z,5.27
2023-03-05T22:48:56.237Z,5.09
2023-03-05T22:51:23.608Z,5.00
2023-03-05T22:53:51.012Z,5.03
2023-03-05T22:56:19.698Z,5.05
2023-03-05T22:58:47.415Z,4.92
2023-03-05T23:01:18.080Z,4.78
2023-03-05T23:04:42.824Z,4.68
2023-03-05T23:07:10.041Z,4.64
2023-03-05T23:09:37.264Z,4.60
2023-03-05T23:12:04.843Z,4.62
2023-03-05T23:14:31.994Z,4.62
2023-03-05T23:16:59.315Z,4.65
2023-03-05T23:19:26.545Z,4.68
2023-03-05T23:21:53.736Z,4.72
2023-03-05T23:24:20.930Z,4.75
2023-03-05T23:26:48.180Z,4.59
2023-03-05T23:30:14.543Z,4.39
2023-03-05T23:32:43.968Z,4.31
2023-03-05T23:35:13.503Z,4.30
2023-03-05T23:37:41.161Z,4.29
2023-03-05T23:40:12.705Z,4.19
2023-03-05T23:42:40.190Z,4.07
2023-03-05T23:45:10.464Z,4.03
2023-03-05T23:47:37.816Z,3.95
2023-03-05T23:50:07.239Z,3.85
2023-03-05T23:52:34.781Z,3.76
2023-03-05T23:55:02.115Z,3.69
2023-03-05T23:57:29.357Z,3.64
2023-03-05T23:59:56.593Z,3.59
